sensor_id;sensor_type;location;lat;lon;timestamp;P1;durP1;ratioP1;P2;durP2;ratioP2
18188;SDS011;9219;50.396;8.546;2022-12-18T00:00:39;24.73;;;11.67;;
18188;SDS011;9219;50.396;8.546;2022-12-18T00:03:07;26.20;;;12.33;;
18188;SDS011;9219;50.396;8.546;2022-12-18T00:05:35;25.37;;;11.83;;
18188;SDS011;9219;50.396;8.546;2022-12-18T00:08:03;23.23;;;11.63;;
18188;SDS011;9219;50.396;8.546;2022-12-18T00:10:34;21.10;;;11.47;;
18188;SDS011;9219;50.396;8.546;2022-12-18T00:18:10;21.47;;;11.00;;
18188;SDS011;9219;50.396;8.546;2022-12-18T00:20:44;21.80;;;10.27;;
18188;SDS011;9219;50.396;8.546;2022-12-18T00:23:11;19.17;;;10.37;;
18188;SDS011;9219;50.396;8.546;2022-12-18T00:25:39;22.00;;;10.43;;
18188;SDS011;9219;50.396;8.546;2022-12-18T00:28:07;22.70;;;12.27;;
18188;SDS011;9219;50.396;8.546;2022-12-18T00:30:34;23.90;;;11.77;;
18188;SDS011;9219;50.396;8.546;2022-12-18T00:33:03;23.50;;;13.07;;
18188;SDS011;9219;50.396;8.546;2022-12-18T00:40:36;25.63;;;12.33;;
18188;SDS011;9219;50.396;8.546;2022-12-18T00:43:05;28.00;;;12.10;;
18188;SDS011;9219;50.396;8.546;2022-12-18T00:45:32;22.37;;;11.57;;
18188;SDS011;9219;50.396;8.546;2022-12-18T00:48:00;20.20;;;11.33;;
18188;SDS011;9219;50.396;8.546;2022-12-18T00:50:28;19.93;;;10.47;;
18188;SDS011;9219;50.396;8.546;2022-12-18T00:52:56;26.90;;;12.93;;
18188;SDS011;9219;50.396;8.546;2022-12-18T00:55:24;24.37;;;11.40;;
18188;SDS011;9219;50.396;8.546;2022-12-18T00:57:56;23.93;;;11.53;;
18188;SDS011;9219;50.396;8.546;2022-12-18T01:19:20;21.30;;;11.10;;
18188;SDS011;9219;50.396;8.546;2022-12-18T01:21:50;26.57;;;11.50;;
18188;SDS011;9219;50.396;8.546;2022-12-18T01:24:18;25.73;;;10.60;;
18188;SDS011;9219;50.396;8.546;2022-12-18T01:26:48;23.60;;;12.77;;
18188;SDS011;9219;50.396;8.546;2022-12-18T01:29:17;23.83;;;10.47;;
18188;SDS011;9219;50.396;8.546;2022-12-18T01:31:45;27.53;;;11.97;;
18188;SDS011;9219;50.396;8.546;2022-12-18T01:36:54;24.17;;;11.90;;
18188;SDS011;9219;50.396;8.546;2022-12-18T01:39:23;23.17;;;11.10;;
18188;SDS011;9219;50.396;8.546;2022-12-18T01:41:54;26.00;;;11.50;;
18188;SDS011;9219;50.396;8.546;2022-12-18T01:47:23;27.80;;;12.10;;
18188;SDS011;9219;50.396;8.546;2022-12-18T01:49:59;29.43;;;11.53;;
18188;SDS011;9219;50.396;8.546;2022-12-18T01:52:31;27.23;;;10.80;;
18188;SDS011;9219;50.396;8.546;2022-12-18T01:55:03;25.30;;;11.83;;
18188;SDS011;9219;50.396;8.546;2022-12-18T02:03:10;27.57;;;11.60;;
18188;SDS011;9219;50.396;8.546;2022-12-18T02:05:50;25.83;;;12.20;;
18188;SDS011;9219;50.396;8.546;2022-12-18T02:08:29;23.43;;;10.67;;
18188;SDS011;9219;50.396;8.546;2022-12-18T02:14:15;24.13;;;11.90;;
18188;SDS011;9219;50.396;8.546;2022-12-18T02:17:06;28.47;;;11.80;;
18188;SDS011;9219;50.396;8.546;2022-12-18T02:19:46;25.27;;;11.27;;
18188;SDS011;9219;50.396;8.546;2022-12-18T02:22:25;32.20;;;11.90;;
18188;SDS011;9219;50.396;8.546;2022-12-18T02:25:02;24.67;;;10.90;;
18188;SDS011;9219;50.396;8.546;2022-12-18T02:27:47;27.07;;;11.67;;
18188;SDS011;9219;50.396;8.546;2022-12-18T02:30:33;27.83;;;12.47;;
18188;SDS011;9219;50.396;8.546;2022-12-18T02:33:06;23.33;;;11.80;;
18188;SDS011;9219;50.396;8.546;2022-12-18T02:35:39;28.00;;;12.37;;
18188;SDS011;9219;50.396;8.546;2022-12-18T02:43:47;32.10;;;11.93;;
18188;SDS011;9219;50.396;8.546;2022-12-18T02:46:27;27.80;;;13.10;;
18188;SDS011;9219;50.396;8.546;2022-12-18T02:49:04;25.20;;;12.73;;
18188;SDS011;9219;50.396;8.546;2022-12-18T02:51:40;25.43;;;12.87;;
18188;SDS011;9219;50.396;8.546;2022-12-18T02:54:18;29.13;;;12.73;;
18188;SDS011;9219;50.396;8.546;2022-12-18T02:56:55;26.37;;;12.60;;
18188;SDS011;9219;50.396;8.546;2022-12-18T02:59:30;34.13;;;12.83;;
18188;SDS011;9219;50.396;8.546;2022-12-18T03:02:06;38.67;;;13.53;;
18188;SDS011;9219;50.396;8.546;2022-12-18T03:09:56;30.67;;;13.60;;
18188;SDS011;9219;50.396;8.546;2022-12-18T03:12:28;36.60;;;13.83;;
18188;SDS011;9219;50.396;8.546;2022-12-18T03:15:18;31.80;;;13.60;;
18188;SDS011;9219;50.396;8.546;2022-12-18T03:17:50;33.83;;;14.90;;
18188;SDS011;9219;50.396;8.546;2022-12-18T03:20:23;32.27;;;14.00;;
18188;SDS011;9219;50.396;8.546;2022-12-18T03:22:55;31.53;;;13.27;;
18188;SDS011;9219;50.396;8.546;2022-12-18T03:25:35;45.80;;;17.13;;
18188;SDS011;9219;50.396;8.546;2022-12-18T03:28:08;36.17;;;15.23;;
18188;SDS011;9219;50.396;8.546;2022-12-18T03:33:52;28.13;;;14.47;;
18188;SDS011;9219;50.396;8.546;2022-12-18T03:36:21;34.10;;;13.83;;
18188;SDS011;9219;50.396;8.546;2022-12-18T03:38:50;32.27;;;14.30;;
18188;SDS011;9219;50.396;8.546;2022-12-18T03:41:23;28.40;;;13.53;;
18188;SDS011;9219;50.396;8.546;2022-12-18T03:43:57;31.47;;;13.87;;
18188;SDS011;9219;50.396;8.546;2022-12-18T03:46:37;30.47;;;14.83;;
18188;SDS011;9219;50.396;8.546;2022-12-18T03:49:18;30.20;;;13.67;;
18188;SDS011;9219;50.396;8.546;2022-12-18T03:51:54;33.23;;;14.50;;
18188;SDS011;9219;50.396;8.546;2022-12-18T03:57:33;31.43;;;15.13;;
18188;SDS011;9219;50.396;8.546;2022-12-18T04:00:04;34.53;;;13.37;;
18188;SDS011;9219;50.396;8.546;2022-12-18T04:02:35;36.87;;;14.67;;
18188;SDS011;9219;50.396;8.546;2022-12-18T04:05:05;38.33;;;15.07;;
18188;SDS011;9219;50.396;8.546;2022-12-18T04:07:37;29.43;;;14.27;;
18188;SDS011;9219;50.396;8.546;2022-12-18T04:10:07;32.37;;;16.33;;
18188;SDS011;9219;50.396;8.546;2022-12-18T04:12:38;39.40;;;15.80;;
18188;SDS011;9219;50.396;8.546;2022-12-18T04:30:41;36.27;;;16.03;;
18188;SDS011;9219;50.396;8.546;2022-12-18T04:33:09;41.43;;;16.83;;
18188;SDS011;9219;50.396;8.546;2022-12-18T04:35:37;32.87;;;14.77;;
18188;SDS011;9219;50.396;8.546;2022-12-18T04:38:05;32.60;;;14.93;;
18188;SDS011;9219;50.396;8.546;2022-12-18T04:40:36;36.03;;;15.10;;
18188;SDS011;9219;50.396;8.546;2022-12-18T04:43:06;33.20;;;15.80;;
18188;SDS011;9219;50.396;8.546;2022-12-18T04:45:34;40.83;;;15.53;;
18188;SDS011;9219;50.396;8.546;2022-12-18T04:48:26;35.30;;;16.63;;
18188;SDS011;9219;50.396;8.546;2022-12-18T04:50:54;31.27;;;15.10;;
18188;SDS011;9219;50.396;8.546;2022-12-18T04:53:22;37.10;;;16.30;;
18188;SDS011;9219;50.396;8.546;2022-12-18T04:56:02;37.77;;;15.00;;
18188;SDS011;9219;50.396;8.546;2022-12-18T04:58:31;37.00;;;16.77;;
18188;SDS011;9219;50.396;8.546;2022-12-18T05:00:59;32.47;;;15.67;;
18188;SDS011;9219;50.396;8.546;2022-12-18T05:03:29;31.00;;;15.20;;
18188;SDS011;9219;50.396;8.546;2022-12-18T05:05:56;35.73;;;16.43;;
18188;SDS011;9219;50.396;8.546;2022-12-18T05:13:29;44.00;;;17.03;;
18188;SDS011;9219;50.396;8.546;2022-12-18T05:15:57;38.20;;;17.47;;
18188;SDS011;9219;50.396;8.546;2022-12-18T05:18:24;35.23;;;17.33;;
18188;SDS011;9219;50.396;8.546;2022-12-18T05:20:55;32.67;;;15.43;;
18188;SDS011;9219;50.396;8.546;2022-12-18T05:23:23;41.07;;;16.90;;
18188;SDS011;9219;50.396;8.546;2022-12-18T05:25:53;38.47;;;16.83;;
18188;SDS011;9219;50.396;8.546;2022-12-18T05:28:24;30.53;;;15.60;;
18188;SDS011;9219;50.396;8.546;2022-12-18T05:33:41;38.17;;;16.07;;
18188;SDS011;9219;50.396;8.546;2022-12-18T05:36:09;35.60;;;16.73;;
18188;SDS011;9219;50.396;8.546;2022-12-18T05:38:37;36.63;;;16.83;;
18188;SDS011;9219;50.396;8.546;2022-12-18T05:41:08;32.10;;;15.03;;
18188;SDS011;9219;50.396;8.546;2022-12-18T05:43:36;44.60;;;17.43;;
18188;SDS011;9219;50.396;8.546;2022-12-18T05:46:05;35.17;;;15.10;;
18188;SDS011;9219;50.396;8.546;2022-12-18T05:48:34;36.97;;;17.37;;
18188;SDS011;9219;50.396;8.546;2022-12-18T05:51:04;33.57;;;16.40;;
18188;SDS011;9219;50.396;8.546;2022-12-18T05:57:53;33.27;;;15.50;;
18188;SDS011;9219;50.396;8.546;2022-12-18T06:00:22;33.50;;;15.03;;
18188;SDS011;9219;50.396;8.546;2022-12-18T06:02:50;31.60;;;15.10;;
18188;SDS011;9219;50.396;8.546;2022-12-18T06:05:18;34.13;;;14.13;;
18188;SDS011;9219;50.396;8.546;2022-12-18T06:07:47;42.63;;;15.57;;
18188;SDS011;9219;50.396;8.546;2022-12-18T06:10:15;34.57;;;14.63;;
18188;SDS011;9219;50.396;8.546;2022-12-18T06:12:42;38.10;;;14.47;;
18188;SDS011;9219;50.396;8.546;2022-12-18T06:18:27;38.03;;;14.10;;
18188;SDS011;9219;50.396;8.546;2022-12-18T06:20:55;35.70;;;14.90;;
18188;SDS011;9219;50.396;8.546;2022-12-18T06:23:23;37.67;;;16.20;;
18188;SDS011;9219;50.396;8.546;2022-12-18T06:25:50;39.27;;;15.93;;
18188;SDS011;9219;50.396;8.546;2022-12-18T06:28:18;36.97;;;14.60;;
18188;SDS011;9219;50.396;8.546;2022-12-18T06:30:46;34.37;;;14.70;;
18188;SDS011;9219;50.396;8.546;2022-12-18T06:33:17;38.63;;;14.87;;
18188;SDS011;9219;50.396;8.546;2022-12-18T06:38:32;42.73;;;16.07;;
18188;SDS011;9219;50.396;8.546;2022-12-18T06:41:05;39.30;;;14.63;;
18188;SDS011;9219;50.396;8.546;2022-12-18T06:43:33;33.33;;;13.67;;
18188;SDS011;9219;50.396;8.546;2022-12-18T06:46:01;31.87;;;13.27;;
18188;SDS011;9219;50.396;8.546;2022-12-18T06:48:30;31.80;;;14.73;;
18188;SDS011;9219;50.396;8.546;2022-12-18T06:50:59;34.90;;;14.27;;
18188;SDS011;9219;50.396;8.546;2022-12-18T06:53:28;42.47;;;16.33;;
18188;SDS011;9219;50.396;8.546;2022-12-18T07:01:03;37.67;;;15.30;;
18188;SDS011;9219;50.396;8.546;2022-12-18T07:03:41;31.03;;;13.23;;
18188;SDS011;9219;50.396;8.546;2022-12-18T07:06:13;36.57;;;15.27;;
18188;SDS011;9219;50.396;8.546;2022-12-18T07:08:44;33.93;;;15.00;;
18188;SDS011;9219;50.396;8.546;2022-12-18T07:11:12;36.90;;;15.87;;
18188;SDS011;9219;50.396;8.546;2022-12-18T07:13:40;34.13;;;13.17;;
18188;SDS011;9219;50.396;8.546;2022-12-18T07:31:43;33.57;;;14.83;;
18188;SDS011;9219;50.396;8.546;2022-12-18T07:34:12;34.20;;;13.77;;
18188;SDS011;9219;50.396;8.546;2022-12-18T07:36:41;32.67;;;14.00;;
18188;SDS011;9219;50.396;8.546;2022-12-18T07:39:11;35.33;;;13.10;;
18188;SDS011;9219;50.396;8.546;2022-12-18T07:41:38;30.30;;;12.70;;
18188;SDS011;9219;50.396;8.546;2022-12-18T07:44:12;30.80;;;13.43;;
18188;SDS011;9219;50.396;8.546;2022-12-18T07:46:41;31.93;;;13.67;;
18188;SDS011;9219;50.396;8.546;2022-12-18T07:53:54;30.70;;;13.30;;
18188;SDS011;9219;50.396;8.546;2022-12-18T07:56:21;44.67;;;13.33;;
18188;SDS011;9219;50.396;8.546;2022-12-18T07:58:55;31.47;;;13.70;;
18188;SDS011;9219;50.396;8.546;2022-12-18T08:01:23;35.73;;;15.13;;
18188;SDS011;9219;50.396;8.546;2022-12-18T08:03:51;33.40;;;13.53;;
18188;SDS011;9219;50.396;8.546;2022-12-18T08:06:19;30.83;;;12.77;;
18188;SDS011;9219;50.396;8.546;2022-12-18T08:08:50;30.33;;;13.90;;
18188;SDS011;9219;50.396;8.546;2022-12-18T08:14:22;27.53;;;13.67;;
18188;SDS011;9219;50.396;8.546;2022-12-18T08:16:52;31.63;;;14.07;;
18188;SDS011;9219;50.396;8.546;2022-12-18T08:19:19;33.10;;;14.67;;
18188;SDS011;9219;50.396;8.546;2022-12-18T08:21:47;37.00;;;15.73;;
18188;SDS011;9219;50.396;8.546;2022-12-18T08:24:16;33.23;;;15.57;;
18188;SDS011;9219;50.396;8.546;2022-12-18T08:26:44;32.27;;;14.63;;
18188;SDS011;9219;50.396;8.546;2022-12-18T08:29:34;32.47;;;14.50;;
18188;SDS011;9219;50.396;8.546;2022-12-18T08:36:09;29.63;;;13.97;;
18188;SDS011;9219;50.396;8.546;2022-12-18T08:38:36;32.83;;;15.20;;
18188;SDS011;9219;50.396;8.546;2022-12-18T08:41:05;32.23;;;14.03;;
18188;SDS011;9219;50.396;8.546;2022-12-18T08:43:33;32.67;;;13.20;;
18188;SDS011;9219;50.396;8.546;2022-12-18T08:46:19;27.73;;;12.60;;
18188;SDS011;9219;50.396;8.546;2022-12-18T08:48:47;33.37;;;13.87;;
18188;SDS011;9219;50.396;8.546;2022-12-18T08:51:17;32.03;;;13.67;;
18188;SDS011;9219;50.396;8.546;2022-12-18T08:59:19;29.63;;;13.33;;
18188;SDS011;9219;50.396;8.546;2022-12-18T09:01:53;28.03;;;13.47;;
18188;SDS011;9219;50.396;8.546;2022-12-18T09:04:24;30.50;;;13.53;;
18188;SDS011;9219;50.396;8.546;2022-12-18T09:07:04;31.60;;;13.57;;
18188;SDS011;9219;50.396;8.546;2022-12-18T09:09:46;35.70;;;13.40;;
18188;SDS011;9219;50.396;8.546;2022-12-18T09:12:54;26.27;;;12.37;;
18188;SDS011;9219;50.396;8.546;2022-12-18T09:15:26;26.43;;;13.60;;
18188;SDS011;9219;50.396;8.546;2022-12-18T09:18:18;30.87;;;13.37;;
18188;SDS011;9219;50.396;8.546;2022-12-18T09:20:50;28.87;;;11.80;;
18188;SDS011;9219;50.396;8.546;2022-12-18T09:39:28;23.40;;;10.73;;
18188;SDS011;9219;50.396;8.546;2022-12-18T09:41:57;23.80;;;11.90;;
18188;SDS011;9219;50.396;8.546;2022-12-18T09:44:26;22.60;;;10.63;;
18188;SDS011;9219;50.396;8.546;2022-12-18T09:47:05;22.00;;;11.93;;
18188;SDS011;9219;50.396;8.546;2022-12-18T09:49:40;25.33;;;11.83;;
18188;SDS011;9219;50.396;8.546;2022-12-18T09:52:14;24.27;;;11.13;;
18188;SDS011;9219;50.396;8.546;2022-12-18T09:54:53;25.90;;;10.00;;
18188;SDS011;9219;50.396;8.546;2022-12-18T10:02:25;24.57;;;11.17;;
18188;SDS011;9219;50.396;8.546;2022-12-18T10:05:02;27.50;;;12.27;;
18188;SDS011;9219;50.396;8.546;2022-12-18T10:07:38;24.10;;;11.17;;
18188;SDS011;9219;50.396;8.546;2022-12-18T10:10:23;29.93;;;11.30;;
18188;SDS011;9219;50.396;8.546;2022-12-18T10:13:07;29.77;;;12.07;;
18188;SDS011;9219;50.396;8.546;2022-12-18T10:15:49;27.83;;;12.13;;
18188;SDS011;9219;50.396;8.546;2022-12-18T10:18:30;24.37;;;11.33;;
18188;SDS011;9219;50.396;8.546;2022-12-18T10:21:15;23.97;;;11.20;;
18188;SDS011;9219;50.396;8.546;2022-12-18T10:28:56;27.00;;;13.10;;
18188;SDS011;9219;50.396;8.546;2022-12-18T10:31:31;24.70;;;11.40;;
18188;SDS011;9219;50.396;8.546;2022-12-18T10:34:01;29.37;;;13.13;;
18188;SDS011;9219;50.396;8.546;2022-12-18T10:36:29;29.33;;;12.97;;
18188;SDS011;9219;50.396;8.546;2022-12-18T10:39:00;25.50;;;11.93;;
18188;SDS011;9219;50.396;8.546;2022-12-18T10:41:41;30.93;;;13.07;;
18188;SDS011;9219;50.396;8.546;2022-12-18T10:44:14;24.10;;;12.13;;
18188;SDS011;9219;50.396;8.546;2022-12-18T10:46:48;30.17;;;14.23;;
18188;SDS011;9219;50.396;8.546;2022-12-18T10:56:44;28.93;;;13.53;;
18188;SDS011;9219;50.396;8.546;2022-12-18T10:59:12;36.33;;;15.27;;
18188;SDS011;9219;50.396;8.546;2022-12-18T11:01:48;31.77;;;14.27;;
18188;SDS011;9219;50.396;8.546;2022-12-18T11:04:21;32.97;;;15.27;;
18188;SDS011;9219;50.396;8.546;2022-12-18T11:06:55;33.57;;;14.30;;
18188;SDS011;9219;50.396;8.546;2022-12-18T11:09:28;42.00;;;15.63;;
18188;SDS011;9219;50.396;8.546;2022-12-18T11:12:08;36.07;;;16.10;;
18188;SDS011;9219;50.396;8.546;2022-12-18T11:19:53;32.93;;;15.90;;
18188;SDS011;9219;50.396;8.546;2022-12-18T11:22:23;33.27;;;15.37;;
18188;SDS011;9219;50.396;8.546;2022-12-18T11:24:55;33.90;;;15.53;;
18188;SDS011;9219;50.396;8.546;2022-12-18T11:27:47;36.70;;;15.20;;
18188;SDS011;9219;50.396;8.546;2022-12-18T11:30:20;34.53;;;15.77;;
18188;SDS011;9219;50.396;8.546;2022-12-18T11:32:51;34.27;;;15.37;;
18188;SDS011;9219;50.396;8.546;2022-12-18T11:35:30;41.57;;;19.77;;
18188;SDS011;9219;50.396;8.546;2022-12-18T11:43:19;39.80;;;17.93;;
18188;SDS011;9219;50.396;8.546;2022-12-18T11:45:53;39.10;;;17.30;;
18188;SDS011;9219;50.396;8.546;2022-12-18T11:48:32;43.73;;;19.10;;
18188;SDS011;9219;50.396;8.546;2022-12-18T11:51:14;41.97;;;17.73;;
18188;SDS011;9219;50.396;8.546;2022-12-18T11:53:52;42.37;;;18.37;;
18188;SDS011;9219;50.396;8.546;2022-12-18T11:56:27;38.80;;;18.17;;
18188;SDS011;9219;50.396;8.546;2022-12-18T11:59:08;38.43;;;18.37;;
18188;SDS011;9219;50.396;8.546;2022-12-18T12:07:22;44.73;;;20.47;;
18188;SDS011;9219;50.396;8.546;2022-12-18T12:10:00;55.73;;;20.10;;
18188;SDS011;9219;50.396;8.546;2022-12-18T12:12:44;46.70;;;21.30;;
18188;SDS011;9219;50.396;8.546;2022-12-18T12:15:29;55.23;;;22.97;;
18188;SDS011;9219;50.396;8.546;2022-12-18T12:18:23;55.80;;;21.60;;
18188;SDS011;9219;50.396;8.546;2022-12-18T12:21:02;50.23;;;21.87;;
18188;SDS011;9219;50.396;8.546;2022-12-18T12:23:38;49.10;;;20.60;;
18188;SDS011;9219;50.396;8.546;2022-12-18T12:26:14;55.83;;;22.40;;
18188;SDS011;9219;50.396;8.546;2022-12-18T12:37:01;52.13;;;23.03;;
18188;SDS011;9219;50.396;8.546;2022-12-18T12:39:41;60.43;;;22.90;;
18188;SDS011;9219;50.396;8.546;2022-12-18T12:42:55;59.73;;;22.23;;
18188;SDS011;9219;50.396;8.546;2022-12-18T12:45:48;53.83;;;24.37;;
18188;SDS011;9219;50.396;8.546;2022-12-18T12:48:27;59.07;;;22.13;;
18188;SDS011;9219;50.396;8.546;2022-12-18T12:53:58;63.13;;;22.93;;
18188;SDS011;9219;50.396;8.546;2022-12-18T12:56:45;69.80;;;24.13;;
18188;SDS011;9219;50.396;8.546;2022-12-18T12:59:45;58.93;;;25.13;;
18188;SDS011;9219;50.396;8.546;2022-12-18T13:02:21;73.50;;;21.70;;
18188;SDS011;9219;50.396;8.546;2022-12-18T13:04:58;72.50;;;24.50;;
18188;SDS011;9219;50.396;8.546;2022-12-18T13:07:32;70.10;;;25.10;;
18188;SDS011;9219;50.396;8.546;2022-12-18T13:10:13;66.70;;;23.40;;
18188;SDS011;9219;50.396;8.546;2022-12-18T13:12:55;67.40;;;23.67;;
18188;SDS011;9219;50.396;8.546;2022-12-18T13:15:25;56.03;;;22.53;;
18188;SDS011;9219;50.396;8.546;2022-12-18T13:18:13;60.00;;;23.50;;
18188;SDS011;9219;50.396;8.546;2022-12-18T13:25:57;69.20;;;26.97;;
18188;SDS011;9219;50.396;8.546;2022-12-18T13:34:45;69.33;;;25.03;;
18188;SDS011;9219;50.396;8.546;2022-12-18T13:43:32;77.63;;;27.10;;
18188;SDS011;9219;50.396;8.546;2022-12-18T13:51:25;81.87;;;27.27;;
18188;SDS011;9219;50.396;8.546;2022-12-18T13:53:56;80.13;;;28.10;;
18188;SDS011;9219;50.396;8.546;2022-12-18T13:56:33;79.03;;;26.47;;
18188;SDS011;9219;50.396;8.546;2022-12-18T13:59:17;71.57;;;27.10;;
18188;SDS011;9219;50.396;8.546;2022-12-18T14:01:53;72.10;;;26.50;;
18188;SDS011;9219;50.396;8.546;2022-12-18T14:04:30;79.00;;;28.20;;
18188;SDS011;9219;50.396;8.546;2022-12-18T14:07:07;85.97;;;28.40;;
18188;SDS011;9219;50.396;8.546;2022-12-18T14:09:44;89.17;;;27.30;;
18188;SDS011;9219;50.396;8.546;2022-12-18T14:17:41;72.73;;;25.33;;
18188;SDS011;9219;50.396;8.546;2022-12-18T14:20:13;76.47;;;28.80;;
18188;SDS011;9219;50.396;8.546;2022-12-18T14:22:48;66.77;;;25.20;;
18188;SDS011;9219;50.396;8.546;2022-12-18T14:25:23;70.17;;;25.30;;
18188;SDS011;9219;50.396;8.546;2022-12-18T14:27:53;66.40;;;24.43;;
18188;SDS011;9219;50.396;8.546;2022-12-18T14:30:39;64.87;;;24.47;;
18188;SDS011;9219;50.396;8.546;2022-12-18T14:33:16;63.13;;;25.07;;
18188;SDS011;9219;50.396;8.546;2022-12-18T14:41:28;73.10;;;24.47;;
18188;SDS011;9219;50.396;8.546;2022-12-18T14:44:05;76.17;;;25.27;;
18188;SDS011;9219;50.396;8.546;2022-12-18T14:46:40;86.80;;;28.33;;
18188;SDS011;9219;50.396;8.546;2022-12-18T14:49:18;76.37;;;25.83;;
18188;SDS011;9219;50.396;8.546;2022-12-18T14:51:53;79.53;;;27.10;;
18188;SDS011;9219;50.396;8.546;2022-12-18T14:54:23;67.43;;;25.97;;
18188;SDS011;9219;50.396;8.546;2022-12-18T14:56:59;72.37;;;25.43;;
18188;SDS011;9219;50.396;8.546;2022-12-18T15:05:01;81.67;;;26.17;;
18188;SDS011;9219;50.396;8.546;2022-12-18T15:07:51;79.53;;;26.50;;
18188;SDS011;9219;50.396;8.546;2022-12-18T15:10:27;80.30;;;26.70;;
18188;SDS011;9219;50.396;8.546;2022-12-18T15:13:15;78.77;;;26.27;;
18188;SDS011;9219;50.396;8.546;2022-12-18T15:16:01;81.03;;;27.33;;
18188;SDS011;9219;50.396;8.546;2022-12-18T15:18:45;78.07;;;25.47;;
18188;SDS011;9219;50.396;8.546;2022-12-18T15:24:17;70.20;;;25.23;;
18188;SDS011;9219;50.396;8.546;2022-12-18T15:27:18;79.50;;;26.70;;
18188;SDS011;9219;50.396;8.546;2022-12-18T15:30:17;77.83;;;26.47;;
18188;SDS011;9219;50.396;8.546;2022-12-18T15:33:22;88.90;;;26.63;;
18188;SDS011;9219;50.396;8.546;2022-12-18T15:35:58;78.33;;;25.87;;
18188;SDS011;9219;50.396;8.546;2022-12-18T15:38:32;81.60;;;26.43;;
18188;SDS011;9219;50.396;8.546;2022-12-18T15:41:19;76.63;;;26.97;;
18188;SDS011;9219;50.396;8.546;2022-12-18T15:47:40;72.17;;;24.77;;
18188;SDS011;9219;50.396;8.546;2022-12-18T15:50:14;72.80;;;25.77;;
18188;SDS011;9219;50.396;8.546;2022-12-18T15:52:48;80.93;;;27.37;;
18188;SDS011;9219;50.396;8.546;2022-12-18T15:55:25;76.13;;;27.27;;
18188;SDS011;9219;50.396;8.546;2022-12-18T15:58:16;73.00;;;25.27;;
18188;SDS011;9219;50.396;8.546;2022-12-18T16:00:47;68.23;;;25.40;;
18188;SDS011;9219;50.396;8.546;2022-12-18T16:03:21;61.77;;;24.50;;
18188;SDS011;9219;50.396;8.546;2022-12-18T16:05:53;78.03;;;28.70;;
18188;SDS011;9219;50.396;8.546;2022-12-18T16:13:38;79.87;;;26.97;;
18188;SDS011;9219;50.396;8.546;2022-12-18T16:16:17;68.00;;;25.43;;
18188;SDS011;9219;50.396;8.546;2022-12-18T16:18:54;70.70;;;24.77;;
18188;SDS011;9219;50.396;8.546;2022-12-18T16:21:38;64.77;;;24.17;;
18188;SDS011;9219;50.396;8.546;2022-12-18T16:24:49;68.17;;;22.00;;
18188;SDS011;9219;50.396;8.546;2022-12-18T16:28:05;63.80;;;21.60;;
18188;SDS011;9219;50.396;8.546;2022-12-18T16:30:55;73.80;;;25.07;;
18188;SDS011;9219;50.396;8.546;2022-12-18T16:33:30;70.23;;;25.43;;
18188;SDS011;9219;50.396;8.546;2022-12-18T16:40:51;70.00;;;22.33;;
18188;SDS011;9219;50.396;8.546;2022-12-18T16:43:41;68.53;;;22.97;;
18188;SDS011;9219;50.396;8.546;2022-12-18T16:46:25;71.20;;;24.23;;
18188;SDS011;9219;50.396;8.546;2022-12-18T16:49:02;64.77;;;23.83;;
18188;SDS011;9219;50.396;8.546;2022-12-18T16:51:40;68.37;;;23.07;;
18188;SDS011;9219;50.396;8.546;2022-12-18T16:54:22;73.67;;;24.27;;
18188;SDS011;9219;50.396;8.546;2022-12-18T16:56:58;75.87;;;24.53;;
18188;SDS011;9219;50.396;8.546;2022-12-18T17:04:42;73.83;;;23.63;;
18188;SDS011;9219;50.396;8.546;2022-12-18T17:07:20;61.60;;;23.00;;
18188;SDS011;9219;50.396;8.546;2022-12-18T17:09:57;74.07;;;26.90;;
18188;SDS011;9219;50.396;8.546;2022-12-18T17:12:32;69.77;;;24.30;;
18188;SDS011;9219;50.396;8.546;2022-12-18T17:15:08;66.77;;;25.40;;
18188;SDS011;9219;50.396;8.546;2022-12-18T17:17:46;56.07;;;22.23;;
18188;SDS011;9219;50.396;8.546;2022-12-18T17:20:27;58.50;;;23.53;;
18188;SDS011;9219;50.396;8.546;2022-12-18T17:28:18;68.90;;;25.30;;
18188;SDS011;9219;50.396;8.546;2022-12-18T17:30:53;62.50;;;24.23;;
18188;SDS011;9219;50.396;8.546;2022-12-18T17:33:28;64.37;;;24.27;;
18188;SDS011;9219;50.396;8.546;2022-12-18T17:36:02;74.37;;;25.23;;
18188;SDS011;9219;50.396;8.546;2022-12-18T17:38:42;64.07;;;25.10;;
18188;SDS011;9219;50.396;8.546;2022-12-18T17:41:23;60.50;;;22.30;;
18188;SDS011;9219;50.396;8.546;2022-12-18T17:44:04;71.70;;;23.23;;
18188;SDS011;9219;50.396;8.546;2022-12-18T17:46:43;71.70;;;25.37;;
18188;SDS011;9219;50.396;8.546;2022-12-18T17:54:39;79.93;;;26.73;;
18188;SDS011;9219;50.396;8.546;2022-12-18T17:57:31;75.33;;;25.43;;
18188;SDS011;9219;50.396;8.546;2022-12-18T18:00:07;74.23;;;23.77;;
18188;SDS011;9219;50.396;8.546;2022-12-18T18:02:44;71.70;;;25.57;;
18188;SDS011;9219;50.396;8.546;2022-12-18T18:05:18;69.23;;;25.93;;
18188;SDS011;9219;50.396;8.546;2022-12-18T18:07:50;69.90;;;22.93;;
18188;SDS011;9219;50.396;8.546;2022-12-18T18:10:30;66.60;;;25.47;;
18188;SDS011;9219;50.396;8.546;2022-12-18T18:13:04;77.97;;;27.47;;
18188;SDS011;9219;50.396;8.546;2022-12-18T18:21:05;65.43;;;25.20;;
18188;SDS011;9219;50.396;8.546;2022-12-18T18:23:44;74.33;;;25.87;;
18188;SDS011;9219;50.396;8.546;2022-12-18T18:26:22;68.17;;;25.43;;
18188;SDS011;9219;50.396;8.546;2022-12-18T18:29:00;60.40;;;23.77;;
18188;SDS011;9219;50.396;8.546;2022-12-18T18:31:44;67.93;;;23.73;;
18188;SDS011;9219;50.396;8.546;2022-12-18T18:34:19;70.43;;;22.47;;
18188;SDS011;9219;50.396;8.546;2022-12-18T18:37:01;69.43;;;23.37;;
18188;SDS011;9219;50.396;8.546;2022-12-18T18:44:44;66.27;;;23.57;;
18188;SDS011;9219;50.396;8.546;2022-12-18T18:47:15;65.27;;;24.60;;
18188;SDS011;9219;50.396;8.546;2022-12-18T18:49:45;62.40;;;25.57;;
18188;SDS011;9219;50.396;8.546;2022-12-18T18:52:13;57.30;;;23.73;;
18188;SDS011;9219;50.396;8.546;2022-12-18T18:54:48;73.33;;;26.03;;
18188;SDS011;9219;50.396;8.546;2022-12-18T18:57:38;67.40;;;24.93;;
18188;SDS011;9219;50.396;8.546;2022-12-18T19:00:10;61.53;;;22.63;;
18188;SDS011;9219;50.396;8.546;2022-12-18T19:02:45;61.70;;;23.23;;
18188;SDS011;9219;50.396;8.546;2022-12-18T19:10:24;61.33;;;24.20;;
18188;SDS011;9219;50.396;8.546;2022-12-18T19:12:53;65.53;;;24.47;;
18188;SDS011;9219;50.396;8.546;2022-12-18T19:15:40;69.80;;;25.87;;
18188;SDS011;9219;50.396;8.546;2022-12-18T19:18:10;68.53;;;25.73;;
18188;SDS011;9219;50.396;8.546;2022-12-18T19:20:53;63.00;;;22.50;;
18188;SDS011;9219;50.396;8.546;2022-12-18T19:23:25;59.77;;;22.80;;
18188;SDS011;9219;50.396;8.546;2022-12-18T19:26:02;73.13;;;25.30;;
18188;SDS011;9219;50.396;8.546;2022-12-18T19:28:51;70.23;;;23.67;;
18188;SDS011;9219;50.396;8.546;2022-12-18T19:36:29;65.27;;;24.00;;
18188;SDS011;9219;50.396;8.546;2022-12-18T19:39:00;65.83;;;25.83;;
18188;SDS011;9219;50.396;8.546;2022-12-18T19:41:28;70.07;;;25.20;;
18188;SDS011;9219;50.396;8.546;2022-12-18T19:44:00;64.67;;;24.07;;
18188;SDS011;9219;50.396;8.546;2022-12-18T19:46:34;64.13;;;23.40;;
18188;SDS011;9219;50.396;8.546;2022-12-18T19:49:09;64.77;;;25.47;;
18188;SDS011;9219;50.396;8.546;2022-12-18T19:51:44;63.93;;;25.53;;
18188;SDS011;9219;50.396;8.546;2022-12-18T19:54:15;61.93;;;23.30;;
18188;SDS011;9219;50.396;8.546;2022-12-18T20:01:58;63.77;;;23.27;;
18188;SDS011;9219;50.396;8.546;2022-12-18T20:04:30;70.17;;;24.77;;
18188;SDS011;9219;50.396;8.546;2022-12-18T20:06:58;60.77;;;23.37;;
18188;SDS011;9219;50.396;8.546;2022-12-18T20:09:29;70.90;;;24.17;;